createdAt,value
2024-03-17T00:00:44.198Z,1017.09
2024-03-17T00:01:44.553Z,1017.05
2024-03-17T00:02:44.935Z,1017.06
2024-03-17T00:03:45.257Z,1017.05
2024-03-17T00:04:45.619Z,1017.02
2024-03-17T00:05:45.980Z,1017.07
2024-03-17T00:06:46.363Z,1017.03
2024-03-17T00:07:46.744Z,1017.09
2024-03-17T00:08:47.091Z,1017.09
2024-03-17T00:09:47.447Z,1017.06
2024-03-17T00:10:47.782Z,1017.10
2024-03-17T00:11:48.189Z,1017.05
2024-03-17T00:12:48.507Z,1016.99
2024-03-17T00:13:48.875Z,1017.00
2024-03-17T00:14:49.225Z,1017.08
2024-03-17T00:15:49.584Z,1017.07
2024-03-17T00:16:49.941Z,1017.07
2024-03-17T00:17:50.328Z,1017.11
2024-03-17T00:18:50.641Z,1017.08
2024-03-17T00:19:51.038Z,1017.05
2024-03-17T00:20:51.380Z,1017.06
2024-03-17T00:21:51.763Z,1017.07
2024-03-17T00:22:52.110Z,1017.10
2024-03-17T00:23:52.422Z,1017.10
2024-03-17T00:24:52.778Z,1017.06
2024-03-17T00:25:53.118Z,1017.08
2024-03-17T00:26:53.615Z,1017.07
2024-03-17T00:27:53.883Z,1017.04
2024-03-17T00:28:54.221Z,1017.11
2024-03-17T00:29:54.936Z,1017.12
2024-03-17T00:30:54.981Z,1017.10
2024-03-17T00:31:55.370Z,1017.17
2024-03-17T00:32:55.792Z,1017.16
2024-03-17T00:33:56.176Z,1017.17
2024-03-17T00:34:56.549Z,1017.18
2024-03-17T00:35:56.960Z,1017.17
2024-03-17T00:36:57.387Z,1017.15
2024-03-17T00:37:57.735Z,1017.16
2024-03-17T00:38:58.084Z,1017.18
2024-03-17T00:39:58.505Z,1017.19
2024-03-17T00:40:58.802Z,1017.17
2024-03-17T00:41:59.144Z,1017.23
2024-03-17T00:42:59.477Z,1017.24
2024-03-17T00:43:59.804Z,1017.25
2024-03-17T00:45:00.210Z,1017.26
2024-03-17T00:46:00.570Z,1017.24
2024-03-17T00:47:00.973Z,1017.24
2024-03-17T00:48:01.327Z,1017.24
2024-03-17T00:49:01.672Z,1017.26
2024-03-17T00:50:02.034Z,1017.26
2024-03-17T00:51:02.369Z,1017.23
2024-03-17T00:52:02.749Z,1017.24
2024-03-17T00:53:03.160Z,1017.25
2024-03-17T00:54:03.420Z,1017.24
2024-03-17T00:55:03.826Z,1017.24
2024-03-17T00:56:04.203Z,1017.23
2024-03-17T00:57:04.611Z,1017.23
2024-03-17T00:58:04.994Z,1017.22
2024-03-17T00:59:05.303Z,1017.20
2024-03-17T01:00:05.712Z,1017.23
2024-03-17T01:01:06.125Z,1017.21
2024-03-17T01:02:06.456Z,1017.22
2024-03-17T01:03:06.811Z,1017.23
2024-03-17T01:04:07.172Z,1017.26
2024-03-17T01:05:07.529Z,1017.29
2024-03-17T01:06:07.893Z,1017.26
2024-03-17T01:07:08.272Z,1017.30
2024-03-17T01:08:08.633Z,1017.26
2024-03-17T01:09:08.980Z,1017.24
2024-03-17T01:10:09.404Z,1017.25
2024-03-17T01:11:09.769Z,1017.23
2024-03-17T01:12:10.167Z,1017.24
2024-03-17T01:13:10.405Z,1017.26
2024-03-17T01:14:10.791Z,1017.27
2024-03-17T01:15:11.153Z,1017.27
2024-03-17T01:16:11.506Z,1017.25
2024-03-17T01:17:11.898Z,1017.18
2024-03-17T01:18:12.306Z,1017.24
2024-03-17T01:19:12.702Z,1017.28
2024-03-17T01:20:13.112Z,1017.30
2024-03-17T01:21:13.474Z,1017.31
2024-03-17T01:22:13.884Z,1017.28
2024-03-17T01:23:14.217Z,1017.31
2024-03-17T01:24:14.576Z,1017.31
2024-03-17T01:25:14.925Z,1017.28
2024-03-17T01:26:15.958Z,1017.28
2024-03-17T01:27:15.658Z,1017.28
2024-03-17T01:28:16.018Z,1017.29
2024-03-17T01:29:16.367Z,1017.29
2024-03-17T01:30:16.731Z,1017.27
2024-03-17T01:31:17.069Z,1017.29
2024-03-17T01:32:17.455Z,1017.28
2024-03-17T01:33:17.816Z,1017.29
2024-03-17T01:34:18.151Z,1017.27
2024-03-17T01:35:18.503Z,1017.28
2024-03-17T01:36:18.864Z,1017.26
2024-03-17T01:37:19.212Z,1017.27
2024-03-17T01:38:19.570Z,1017.24
2024-03-17T01:39:19.922Z,1017.23
2024-03-17T01:40:20.327Z,1017.27
2024-03-17T01:41:20.663Z,1017.22
2024-03-17T01:42:21.021Z,1017.19
2024-03-17T01:43:21.372Z,1017.21
2024-03-17T01:44:21.752Z,1017.23
2024-03-17T01:45:22.129Z,1017.19
2024-03-17T01:46:22.481Z,1017.18
2024-03-17T01:47:22.839Z,1017.25
2024-03-17T01:48:23.213Z,1017.20
2024-03-17T01:49:23.569Z,1017.22
2024-03-17T01:50:23.911Z,1017.23
2024-03-17T01:51:24.267Z,1017.18
2024-03-17T01:52:24.632Z,1017.16
2024-03-17T01:53:24.996Z,1017.19
2024-03-17T01:54:25.352Z,1017.17
2024-03-17T01:55:25.712Z,1017.22
2024-03-17T01:56:26.083Z,1017.23
2024-03-17T01:57:26.470Z,1017.22
2024-03-17T01:58:26.838Z,1017.23
2024-03-17T01:59:27.201Z,1017.22
2024-03-17T02:00:27.560Z,1017.24
2024-03-17T02:01:27.914Z,1017.25
2024-03-17T02:02:28.279Z,1017.26
2024-03-17T02:03:28.656Z,1017.23
2024-03-17T02:04:29.032Z,1017.21
2024-03-17T02:05:29.435Z,1017.19
2024-03-17T02:06:29.771Z,1017.16
2024-03-17T02:07:30.145Z,1017.18
2024-03-17T02:08:30.495Z,1017.17
2024-03-17T02:09:30.850Z,1017.16
2024-03-17T02:10:31.197Z,1017.21
2024-03-17T02:11:31.558Z,1017.18
2024-03-17T02:12:31.936Z,1017.15
2024-03-17T02:13:32.329Z,1017.21
2024-03-17T02:14:32.698Z,1017.17
2024-03-17T02:15:33.077Z,1017.19
2024-03-17T02:16:33.426Z,1017.17
2024-03-17T02:17:33.793Z,1017.15
2024-03-17T02:18:34.163Z,1017.17
2024-03-17T02:19:35.500Z,1017.16
2024-03-17T02:20:34.845Z,1017.20
2024-03-17T02:21:35.197Z,1017.19
2024-03-17T02:22:35.571Z,1017.16
2024-03-17T02:23:39.375Z,1017.18
2024-03-17T02:24:36.309Z,1017.19
2024-03-17T02:25:36.679Z,1017.21
2024-03-17T02:26:37.026Z,1017.22
2024-03-17T02:27:37.500Z,1017.23
2024-03-17T02:28:37.798Z,1017.17
2024-03-17T02:29:38.176Z,1017.23
2024-03-17T02:30:38.541Z,1017.22
2024-03-17T02:31:38.904Z,1017.26
2024-03-17T02:32:39.284Z,1017.24
2024-03-17T02:33:39.609Z,1017.21
2024-03-17T02:34:39.952Z,1017.20
2024-03-17T02:35:40.309Z,1017.16
2024-03-17T02:36:40.676Z,1017.18
2024-03-17T02:37:41.067Z,1017.19
2024-03-17T02:38:41.433Z,1017.20
2024-03-17T02:39:41.808Z,1017.22
2024-03-17T02:40:42.160Z,1017.24
2024-03-17T02:41:42.535Z,1017.17
2024-03-17T02:42:42.901Z,1017.19
2024-03-17T02:43:43.277Z,1017.20
2024-03-17T02:44:43.629Z,1017.21
2024-03-17T02:45:43.986Z,1017.23
2024-03-17T02:46:44.347Z,1017.24
2024-03-17T02:47:44.724Z,1017.25
2024-03-17T02:48:45.184Z,1017.24
2024-03-17T02:49:45.485Z,1017.24
2024-03-17T02:50:45.861Z,1017.23
2024-03-17T02:51:46.221Z,1017.17
2024-03-17T02:52:46.590Z,1017.22
2024-03-17T02:53:46.942Z,1017.21
2024-03-17T02:55:47.723Z,1017.23
2024-03-17T02:56:48.072Z,1017.27
2024-03-17T02:57:48.449Z,1017.24
2024-03-17T02:58:48.792Z,1017.28
2024-03-17T02:59:49.148Z,1017.25
2024-03-17T03:00:49.520Z,1017.26
2024-03-17T03:01:49.905Z,1017.23
2024-03-17T03:02:50.281Z,1017.24
2024-03-17T03:03:50.637Z,1017.22
2024-03-17T03:04:51.011Z,1017.17
2024-03-17T03:05:51.385Z,1017.23
2024-03-17T03:06:51.778Z,1017.25
2024-03-17T03:07:52.130Z,1017.24
2024-03-17T03:08:52.499Z,1017.27
2024-03-17T03:09:52.872Z,1017.28
2024-03-17T03:10:53.243Z,1017.32
2024-03-17T03:11:53.634Z,1017.27
2024-03-17T03:12:54.011Z,1017.32
2024-03-17T03:13:54.383Z,1017.34
2024-03-17T03:14:54.751Z,1017.23
2024-03-17T03:15:55.123Z,1017.26
2024-03-17T03:16:55.511Z,1017.29
2024-03-17T03:17:55.861Z,1017.30
2024-03-17T03:18:56.234Z,1017.31
2024-03-17T03:19:56.594Z,1017.33
2024-03-17T03:20:56.981Z,1017.33
2024-03-17T03:21:57.345Z,1017.39
2024-03-17T03:22:57.715Z,1017.36
2024-03-17T03:23:58.088Z,1017.35
2024-03-17T03:24:58.460Z,1017.35
2024-03-17T03:25:58.824Z,1017.36
2024-03-17T03:26:59.274Z,1017.38
2024-03-17T03:27:59.655Z,1017.32
2024-03-17T03:29:00.029Z,1017.34
2024-03-17T03:30:00.424Z,1017.29
2024-03-17T03:31:00.766Z,1017.31
2024-03-17T03:32:01.146Z,1017.27
2024-03-17T03:33:03.557Z,1017.33
2024-03-17T03:34:01.938Z,1017.31
2024-03-17T03:35:02.307Z,1017.29
2024-03-17T03:36:02.696Z,1017.34
2024-03-17T03:37:03.085Z,1017.31
2024-03-17T03:38:03.437Z,1017.29
2024-03-17T03:39:03.799Z,1017.34
2024-03-17T03:40:04.282Z,1017.32
2024-03-17T03:41:04.506Z,1017.31
2024-03-17T03:42:04.869Z,1017.33
2024-03-17T03:43:05.298Z,1017.29
2024-03-17T03:44:05.707Z,1017.31
2024-03-17T03:45:06.060Z,1017.31
2024-03-17T03:46:06.452Z,1017.30
2024-03-17T03:47:06.819Z,1017.31
2024-03-17T03:48:07.181Z,1017.33
2024-03-17T03:49:07.559Z,1017.37
2024-03-17T03:50:07.929Z,1017.39
2024-03-17T03:51:08.264Z,1017.39
2024-03-17T03:52:08.605Z,1017.41
2024-03-17T03:53:08.960Z,1017.44
2024-03-17T03:54:09.317Z,1017.39
2024-03-17T03:55:10.627Z,1017.41
2024-03-17T03:56:10.153Z,1017.44
2024-03-17T03:57:10.396Z,1017.46
2024-03-17T03:58:10.817Z,1017.44
2024-03-17T03:59:12.054Z,1017.44
2024-03-17T04:00:11.497Z,1017.40
2024-03-17T04:01:12.782Z,1017.42
2024-03-17T04:02:12.266Z,1017.43
2024-03-17T04:03:12.639Z,1017.45
2024-03-17T04:04:13.002Z,1017.48
2024-03-17T04:05:13.368Z,1017.46
2024-03-17T04:06:14.518Z,1017.44
2024-03-17T04:07:14.113Z,1017.45
2024-03-17T04:08:21.498Z,1017.41
2024-03-17T04:09:14.784Z,1017.42
2024-03-17T04:10:15.166Z,1017.44
2024-03-17T04:11:15.534Z,1017.40
2024-03-17T04:12:15.916Z,1017.41
2024-03-17T04:13:16.309Z,1017.40
2024-03-17T04:14:17.469Z,1017.43
2024-03-17T04:15:17.024Z,1017.37
2024-03-17T04:16:17.385Z,1017.43
2024-03-17T04:17:17.755Z,1017.38
2024-03-17T04:18:18.120Z,1017.41
2024-03-17T04:19:18.494Z,1017.37
2024-03-17T04:20:18.858Z,1017.41
2024-03-17T04:21:19.358Z,1017.39
2024-03-17T04:22:19.623Z,1017.39
2024-03-17T04:23:20.069Z,1017.33
2024-03-17T04:24:20.451Z,1017.40
2024-03-17T04:25:20.818Z,1017.39
2024-03-17T04:26:21.184Z,1017.35
2024-03-17T04:27:21.551Z,1017.29
2024-03-17T04:28:21.924Z,1017.34
2024-03-17T04:29:22.368Z,1017.35
2024-03-17T04:30:22.670Z,1017.38
2024-03-17T04:31:23.037Z,1017.37
2024-03-17T04:32:23.439Z,1017.37
2024-03-17T04:33:23.793Z,1017.39
2024-03-17T04:34:24.175Z,1017.42
2024-03-17T04:35:24.548Z,1017.43
2024-03-17T04:36:24.924Z,1017.41
2024-03-17T04:37:25.302Z,1017.44
2024-03-17T04:38:25.687Z,1017.42
2024-03-17T04:39:26.056Z,1017.41
2024-03-17T04:40:26.422Z,1017.47
2024-03-17T04:41:26.850Z,1017.46
2024-03-17T04:42:27.227Z,1017.48
2024-03-17T04:43:28.532Z,1017.45
2024-03-17T04:44:27.998Z,1017.47
2024-03-17T04:45:28.349Z,1017.49
2024-03-17T04:46:28.713Z,1017.53
2024-03-17T04:47:29.101Z,1017.47
2024-03-17T04:48:29.535Z,1017.51
2024-03-17T04:49:29.888Z,1017.54
2024-03-17T04:50:30.246Z,1017.53
2024-03-17T04:51:30.622Z,1017.53
2024-03-17T04:52:30.985Z,1017.53
2024-03-17T04:53:31.356Z,1017.52
2024-03-17T04:54:35.278Z,1017.53
2024-03-17T04:55:32.132Z,1017.53
2024-03-17T04:56:32.496Z,1017.52
2024-03-17T04:57:32.877Z,1017.53
2024-03-17T04:58:33.254Z,1017.55
2024-03-17T04:59:33.600Z,1017.54
2024-03-17T05:00:33.971Z,1017.55
2024-03-17T05:01:34.359Z,1017.61
2024-03-17T05:02:34.831Z,1017.58
2024-03-17T05:03:35.082Z,1017.64
2024-03-17T05:04:35.431Z,1017.60
2024-03-17T05:05:35.784Z,1017.63
2024-03-17T05:06:36.124Z,1017.63
2024-03-17T05:07:37.972Z,1017.66
2024-03-17T05:08:36.868Z,1017.67
2024-03-17T05:09:37.237Z,1017.70
2024-03-17T05:10:37.594Z,1017.71
2024-03-17T05:11:37.950Z,1017.67
2024-03-17T05:12:38.481Z,1017.70
2024-03-17T05:13:38.687Z,1017.70
2024-03-17T05:14:39.067Z,1017.74
2024-03-17T05:15:39.403Z,1017.74
2024-03-17T05:16:39.772Z,1017.72
2024-03-17T05:17:40.148Z,1017.72
2024-03-17T05:18:40.529Z,1017.74
2024-03-17T05:19:40.893Z,1017.68
2024-03-17T05:20:41.275Z,1017.71
2024-03-17T05:21:42.650Z,1017.72
2024-03-17T05:22:42.005Z,1017.71
2024-03-17T05:23:42.366Z,1017.69
2024-03-17T05:24:42.720Z,1017.76
2024-03-17T05:25:43.077Z,1017.72
2024-03-17T05:26:43.469Z,1017.69
2024-03-17T05:27:43.849Z,1017.75
2024-03-17T05:28:44.214Z,1017.69
2024-03-17T05:29:44.630Z,1017.73
2024-03-17T05:30:45.006Z,1017.74
2024-03-17T05:31:45.376Z,1017.78
2024-03-17T05:32:45.747Z,1017.80
2024-03-17T05:33:46.097Z,1017.80
2024-03-17T05:34:46.461Z,1017.78
2024-03-17T05:35:46.812Z,1017.85
2024-03-17T05:36:47.186Z,1017.84
2024-03-17T05:37:47.557Z,1017.84
2024-03-17T05:38:47.929Z,1017.85
2024-03-17T05:39:48.335Z,1017.84
2024-03-17T05:40:48.692Z,1017.84
2024-03-17T05:41:49.048Z,1017.81
2024-03-17T05:42:49.481Z,1017.86
2024-03-17T05:43:49.788Z,1017.85
2024-03-17T05:44:50.152Z,1017.86
2024-03-17T05:45:50.508Z,1017.84
2024-03-17T05:46:50.886Z,1017.86
2024-03-17T05:47:51.253Z,1017.86
2024-03-17T05:48:51.603Z,1017.86
2024-03-17T05:49:51.947Z,1017.86
2024-03-17T05:50:52.289Z,1017.82
2024-03-17T05:51:52.628Z,1017.84
2024-03-17T05:52:53.004Z,1017.88
2024-03-17T05:53:53.351Z,1017.89
2024-03-17T05:54:53.719Z,1017.91
2024-03-17T05:55:54.073Z,1017.92
2024-03-17T05:56:54.427Z,1017.90
2024-03-17T05:57:54.774Z,1017.94
2024-03-17T05:58:55.138Z,1017.98
2024-03-17T05:59:55.524Z,1017.96
2024-03-17T06:00:55.888Z,1017.98
2024-03-17T06:01:56.244Z,1018.01
2024-03-17T06:02:56.624Z,1018.04
2024-03-17T06:03:57.046Z,1018.05
2024-03-17T06:04:57.384Z,1018.07
2024-03-17T06:05:57.732Z,1018.05
2024-03-17T06:06:58.091Z,1018.06
2024-03-17T06:07:58.454Z,1018.12
2024-03-17T06:08:58.801Z,1018.11
2024-03-17T06:09:59.153Z,1018.15
2024-03-17T06:10:59.520Z,1018.11
2024-03-17T06:11:59.930Z,1018.11
2024-03-17T06:13:00.240Z,1018.10
2024-03-17T06:14:00.605Z,1018.09
2024-03-17T06:15:00.967Z,1018.11
2024-03-17T06:16:01.321Z,1018.12
2024-03-17T06:17:01.685Z,1018.16
2024-03-17T06:18:02.039Z,1018.15
2024-03-17T06:19:02.392Z,1018.16
2024-03-17T06:20:02.777Z,1018.19
2024-03-17T06:21:03.122Z,1018.15
2024-03-17T06:22:03.487Z,1018.13
2024-03-17T06:23:03.843Z,1018.17
2024-03-17T06:24:04.186Z,1018.20
2024-03-17T06:25:04.558Z,1018.19
2024-03-17T06:26:04.891Z,1018.16
2024-03-17T06:27:05.259Z,1018.16
2024-03-17T06:28:05.629Z,1018.17
2024-03-17T06:29:05.984Z,1018.20
2024-03-17T06:30:06.344Z,1018.17
2024-03-17T06:31:06.687Z,1018.15
2024-03-17T06:32:07.021Z,1018.14
2024-03-17T06:33:07.408Z,1018.17
2024-03-17T06:34:07.753Z,1018.27
2024-03-17T06:35:08.108Z,1018.23
2024-03-17T06:36:08.441Z,1018.24
2024-03-17T06:37:08.816Z,1018.24
2024-03-17T06:38:09.161Z,1018.26
2024-03-17T06:39:09.493Z,1018.30
2024-03-17T06:40:09.867Z,1018.26
2024-03-17T06:41:10.238Z,1018.27
2024-03-17T06:42:10.575Z,1018.28
2024-03-17T06:43:10.950Z,1018.29
2024-03-17T06:44:11.275Z,1018.32
2024-03-17T06:45:11.649Z,1018.27
2024-03-17T06:46:11.996Z,1018.30
2024-03-17T06:47:12.327Z,1018.28
2024-03-17T06:48:12.674Z,1018.31
2024-03-17T06:49:13.019Z,1018.28
2024-03-17T06:50:13.356Z,1018.33
2024-03-17T06:51:13.700Z,1018.34
2024-03-17T06:52:14.074Z,1018.32
2024-03-17T06:53:14.377Z,1018.34
2024-03-17T06:54:14.718Z,1018.39
2024-03-17T06:55:15.093Z,1018.42
2024-03-17T06:56:15.404Z,1018.47
2024-03-17T06:57:15.757Z,1018.48
2024-03-17T06:58:16.126Z,1018.41
2024-03-17T06:59:16.460Z,1018.43
2024-03-17T07:00:16.813Z,1018.40
2024-03-17T07:01:17.166Z,1018.40
2024-03-17T07:02:17.494Z,1018.44
2024-03-17T07:03:17.832Z,1018.55
2024-03-17T07:04:18.171Z,1018.50
2024-03-17T07:05:18.499Z,1018.50
2024-03-17T07:06:18.824Z,1018.53
2024-03-17T07:07:19.156Z,1018.49
2024-03-17T07:08:19.484Z,1018.58
2024-03-17T07:09:19.802Z,1018.55
2024-03-17T07:10:20.154Z,1018.56
2024-03-17T07:11:20.482Z,1018.55
2024-03-17T07:12:20.808Z,1018.54
2024-03-17T07:13:21.148Z,1018.57
2024-03-17T07:14:21.476Z,1018.62
2024-03-17T07:15:21.814Z,1018.61
2024-03-17T07:16:22.146Z,1018.62
2024-03-17T07:17:22.479Z,1018.60
2024-03-17T07:18:22.820Z,1018.60
2024-03-17T07:19:23.150Z,1018.59
2024-03-17T07:20:23.463Z,1018.61
2024-03-17T07:21:23.790Z,1018.66
2024-03-17T07:22:24.129Z,1018.62
2024-03-17T07:23:24.447Z,1018.63
2024-03-17T07:24:24.768Z,1018.65
2024-03-17T07:25:25.104Z,1018.57
2024-03-17T07:26:25.433Z,1018.63
2024-03-17T07:27:25.768Z,1018.69
2024-03-17T07:28:26.097Z,1018.70
2024-03-17T07:29:26.411Z,1018.69
2024-03-17T07:30:26.744Z,1018.67
2024-03-17T07:31:27.055Z,1018.71
2024-03-17T07:32:27.394Z,1018.73
2024-03-17T07:33:27.660Z,1018.77
2024-03-17T07:34:27.956Z,1018.63
2024-03-17T07:35:28.245Z,1018.65
2024-03-17T07:36:28.646Z,1018.63
2024-03-17T07:37:28.919Z,1018.68
2024-03-17T07:38:29.200Z,1018.67
2024-03-17T07:39:29.569Z,1018.68
2024-03-17T07:40:29.835Z,1018.70
2024-03-17T07:41:30.177Z,1018.72
2024-03-17T07:42:30.564Z,1018.72
2024-03-17T07:43:30.825Z,1018.72
2024-03-17T07:44:31.130Z,1018.70
2024-03-17T07:45:31.379Z,1018.69
2024-03-17T07:46:31.754Z,1018.66
2024-03-17T07:47:32.025Z,1018.70
2024-03-17T07:48:32.400Z,1018.70
2024-03-17T07:49:32.656Z,1018.74
2024-03-17T07:50:33.025Z,1018.78
2024-03-17T07:51:33.399Z,1018.90
2024-03-17T07:52:33.784Z,1018.74
2024-03-17T07:53:34.039Z,1018.71
2024-03-17T07:54:34.451Z,1018.77
2024-03-17T07:55:34.784Z,1018.77
2024-03-17T07:56:35.150Z,1018.81
2024-03-17T07:57:35.552Z,1018.77
2024-03-17T07:58:35.807Z,1018.73
2024-03-17T07:59:36.179Z,1018.75
2024-03-17T08:00:36.552Z,1018.79
2024-03-17T08:01:36.887Z,1018.77
2024-03-17T08:02:37.261Z,1018.68
2024-03-17T08:03:37.470Z,1018.73
2024-03-17T08:04:37.780Z,1018.80
2024-03-17T08:05:38.179Z,1018.73
2024-03-17T08:06:38.393Z,1018.72
2024-03-17T08:07:38.726Z,1018.71
2024-03-17T08:08:39.038Z,1018.77
2024-03-17T08:09:39.350Z,1018.73
2024-03-17T08:10:39.694Z,1018.79
2024-03-17T08:11:39.951Z,1018.77
2024-03-17T08:12:40.259Z,1018.76
2024-03-17T08:13:40.536Z,1018.79
2024-03-17T08:14:40.843Z,1018.71
2024-03-17T08:15:41.114Z,1018.73
2024-03-17T08:16:41.393Z,1018.71
2024-03-17T08:17:41.676Z,1018.77
2024-03-17T08:18:41.938Z,1018.79
2024-03-17T08:19:42.222Z,1018.73
2024-03-17T08:20:42.510Z,1018.75
2024-03-17T08:21:42.770Z,1018.69
2024-03-17T08:22:43.025Z,1018.60
2024-03-17T08:23:43.262Z,1018.74
2024-03-17T08:24:43.494Z,1018.74
2024-03-17T08:25:43.708Z,1018.74
2024-03-17T08:26:44.009Z,1018.70
2024-03-17T08:27:44.167Z,1018.66
2024-03-17T08:28:44.373Z,1018.72
2024-03-17T08:29:44.611Z,1018.68
2024-03-17T08:30:44.821Z,1018.39
2024-03-17T08:31:45.020Z,1018.42
2024-03-17T08:32:45.261Z,1018.61
2024-03-17T08:33:45.462Z,1018.37
2024-03-17T08:34:45.662Z,1018.61
2024-03-17T08:35:45.835Z,1018.32
2024-03-17T08:36:46.043Z,1018.37
2024-03-17T08:37:46.264Z,1018.65
2024-03-17T08:38:46.481Z,1018.66
2024-03-17T08:39:46.663Z,1018.60
2024-03-17T08:40:46.864Z,1018.39
2024-03-17T08:41:47.065Z,1018.40
2024-03-17T08:42:47.268Z,1018.65
2024-03-17T08:43:47.465Z,1018.43
2024-03-17T08:44:47.666Z,1018.34
2024-03-17T08:45:52.917Z,1018.64
2024-03-17T08:46:49.026Z,1018.39
2024-03-17T08:47:48.235Z,1018.38
2024-03-17T08:48:48.448Z,1018.44
2024-03-17T08:49:48.665Z,1018.55
2024-03-17T08:50:48.968Z,1018.59
2024-03-17T08:51:49.165Z,1018.54
2024-03-17T08:52:49.386Z,1018.42
2024-03-17T08:53:49.585Z,1018.56
2024-03-17T08:54:49.881Z,1018.49
2024-03-17T08:55:50.102Z,1018.62
2024-03-17T08:56:50.324Z,1018.51
2024-03-17T08:57:50.552Z,1018.54
2024-03-17T08:58:50.770Z,1018.67
2024-03-17T08:59:50.966Z,1018.78
2024-03-17T09:00:51.290Z,1018.56
2024-03-17T09:01:51.499Z,1018.54
2024-03-17T09:02:51.835Z,1018.44
2024-03-17T09:03:52.027Z,1018.45
2024-03-17T09:04:52.238Z,1018.48
2024-03-17T09:05:52.449Z,1018.53
2024-03-17T09:06:52.784Z,1018.50
2024-03-17T09:07:53.027Z,1018.54
2024-03-17T09:08:53.258Z,1018.48
2024-03-17T09:09:53.480Z,1018.45
2024-03-17T09:10:53.832Z,1018.52
2024-03-17T09:11:54.027Z,1018.46
2024-03-17T09:12:54.277Z,1018.67
2024-03-17T09:13:54.519Z,1018.64
2024-03-17T09:14:54.745Z,1018.36
2024-03-17T09:15:54.956Z,1018.54
2024-03-17T09:16:55.191Z,1018.37
2024-03-17T09:17:55.421Z,1018.41
2024-03-17T09:18:55.646Z,1018.41
2024-03-17T09:19:55.859Z,1018.48
2024-03-17T09:20:56.091Z,1018.45
2024-03-17T09:21:56.319Z,1018.48
2024-03-17T09:22:56.553Z,1018.44
2024-03-17T09:23:56.781Z,1018.42
2024-03-17T09:24:57.097Z,1018.43
2024-03-17T09:25:57.326Z,1018.64
2024-03-17T09:26:57.576Z,1018.37
2024-03-17T09:27:57.824Z,1018.66
2024-03-17T09:28:58.072Z,1018.44
2024-03-17T09:29:58.297Z,1018.61
2024-03-17T09:30:58.632Z,1018.39
2024-03-17T09:31:58.843Z,1018.45
2024-03-17T09:32:59.189Z,1018.45
2024-03-17T09:33:59.416Z,1018.60
2024-03-17T09:34:59.645Z,1018.40
2024-03-17T09:35:59.873Z,1018.43
2024-03-17T09:37:00.140Z,1018.40
2024-03-17T09:38:00.377Z,1018.48
2024-03-17T09:39:00.565Z,1018.39
2024-03-17T09:40:00.793Z,1018.48
2024-03-17T09:41:01.027Z,1018.44
2024-03-17T09:42:01.271Z,1018.43
2024-03-17T09:43:03.521Z,1018.48
2024-03-17T09:44:01.817Z,1018.46
2024-03-17T09:45:02.066Z,1018.41
2024-03-17T09:46:02.340Z,1018.41
2024-03-17T09:47:02.647Z,1018.46
2024-03-17T09:48:02.923Z,1018.47
2024-03-17T09:49:03.221Z,1018.44
2024-03-17T09:50:03.516Z,1018.60
2024-03-17T09:51:03.824Z,1018.53
2024-03-17T09:52:04.067Z,1018.53
2024-03-17T09:53:04.353Z,1018.41
2024-03-17T09:54:04.610Z,1018.49
2024-03-17T09:55:04.878Z,1018.34
2024-03-17T09:56:05.084Z,1018.56
2024-03-17T09:57:05.322Z,1018.46
2024-03-17T09:58:05.575Z,1018.39
2024-03-17T09:59:05.792Z,1018.47
2024-03-17T10:00:06.018Z,1018.21
2024-03-17T10:01:06.214Z,1018.27
2024-03-17T10:02:06.416Z,1018.19
2024-03-17T10:03:06.642Z,1018.16
2024-03-17T10:04:06.845Z,1018.13
2024-03-17T10:05:07.059Z,1018.21
2024-03-17T10:06:07.256Z,1018.15
2024-03-17T10:07:07.568Z,1018.23
2024-03-17T10:08:07.810Z,1018.22
2024-03-17T10:09:08.022Z,1018.43
2024-03-17T10:10:08.259Z,1018.20
2024-03-17T10:11:08.486Z,1018.15
2024-03-17T10:12:08.780Z,1018.25
2024-03-17T10:13:09.036Z,1018.22
2024-03-17T10:14:09.263Z,1018.23
2024-03-17T10:15:09.994Z,1018.48
2024-03-17T10:16:09.771Z,1018.38
2024-03-17T10:17:10.003Z,1018.37
2024-03-17T10:18:10.241Z,1018.37
2024-03-17T10:19:10.474Z,1018.36
2024-03-17T10:20:10.681Z,1018.38
2024-03-17T10:21:10.912Z,1018.22
2024-03-17T10:22:11.109Z,1018.24
2024-03-17T10:23:11.380Z,1018.28
2024-03-17T10:24:11.580Z,1018.18
2024-03-17T10:25:11.874Z,1018.14
2024-03-17T10:26:12.082Z,1018.22
2024-03-17T10:27:12.323Z,1018.22
2024-03-17T10:28:12.519Z,1018.17
2024-03-17T10:29:12.728Z,1018.19
2024-03-17T10:30:12.930Z,1018.16
2024-03-17T10:31:13.259Z,1018.24
2024-03-17T10:32:13.467Z,1018.30
2024-03-17T10:33:13.705Z,1018.27
2024-03-17T10:34:20.550Z,1018.31
2024-03-17T10:35:15.200Z,1018.29
2024-03-17T10:36:14.432Z,1018.26
2024-03-17T10:37:14.725Z,1018.31
2024-03-17T10:38:14.951Z,1018.25
2024-03-17T10:39:15.206Z,1018.27
2024-03-17T10:40:15.452Z,1018.36
2024-03-17T10:41:15.760Z,1018.40
2024-03-17T10:42:16.038Z,1018.46
2024-03-17T10:43:16.355Z,1018.31
2024-03-17T10:44:16.623Z,1018.31
2024-03-17T10:45:16.907Z,1018.31
2024-03-17T10:46:17.192Z,1018.36
2024-03-17T10:47:17.457Z,1018.31
2024-03-17T10:48:17.748Z,1018.34
2024-03-17T10:49:18.031Z,1018.36
2024-03-17T10:50:18.329Z,1018.33
2024-03-17T10:51:18.624Z,1018.47
2024-03-17T10:52:18.950Z,1018.43
2024-03-17T10:53:19.236Z,1018.22
2024-03-17T10:54:19.543Z,1018.38
2024-03-17T10:55:19.884Z,1018.27
2024-03-17T10:56:20.182Z,1018.32
2024-03-17T10:57:20.464Z,1018.35
2024-03-17T10:58:20.752Z,1018.35
2024-03-17T10:59:20.996Z,1018.36
2024-03-17T11:00:21.267Z,1018.36
2024-03-17T11:01:21.538Z,1018.39
2024-03-17T11:02:21.763Z,1018.35
2024-03-17T11:03:22.005Z,1018.33
2024-03-17T11:04:22.250Z,1018.39
2024-03-17T11:05:22.428Z,1018.37
2024-03-17T11:06:22.666Z,1018.33
2024-03-17T11:07:22.915Z,1018.32
2024-03-17T11:08:32.077Z,1018.31
2024-03-17T11:09:24.318Z,1018.27
2024-03-17T11:10:23.563Z,1018.29
2024-03-17T11:11:23.747Z,1018.31
2024-03-17T11:12:26.179Z,1018.28
2024-03-17T11:13:24.175Z,1018.11
2024-03-17T11:14:24.338Z,1018.25
2024-03-17T11:15:24.543Z,1018.02
2024-03-17T11:16:24.723Z,1018.09
2024-03-17T11:17:24.933Z,1018.10
2024-03-17T11:18:25.220Z,1018.11
2024-03-17T11:19:25.318Z,1018.10
2024-03-17T11:20:25.496Z,1018.14
2024-03-17T11:21:25.686Z,1018.10
2024-03-17T11:22:25.904Z,1018.14
2024-03-17T11:23:28.334Z,1018.10
2024-03-17T11:24:26.356Z,1018.18
2024-03-17T11:25:26.586Z,1018.27
2024-03-17T11:26:26.790Z,1018.25
2024-03-17T11:27:27.004Z,1018.27
2024-03-17T11:28:27.234Z,1018.22
2024-03-17T11:29:27.457Z,1018.24
2024-03-17T11:30:27.687Z,1018.22
2024-03-17T11:31:27.917Z,1018.19
2024-03-17T11:32:28.170Z,1018.13
2024-03-17T11:33:28.366Z,1018.19
2024-03-17T11:34:28.571Z,1018.18
2024-03-17T11:35:28.778Z,1018.19
2024-03-17T11:36:28.987Z,1018.20
2024-03-17T11:37:29.197Z,1018.14
2024-03-17T11:38:29.423Z,1018.16
2024-03-17T11:39:29.664Z,1018.15
2024-03-17T11:40:29.858Z,1018.16
2024-03-17T11:41:30.037Z,1018.02
2024-03-17T11:42:30.234Z,1018.03
2024-03-17T11:43:30.533Z,1018.01
2024-03-17T11:44:30.688Z,1018.01
2024-03-17T11:45:30.988Z,1018.01
2024-03-17T11:46:31.181Z,1018.03
2024-03-17T11:47:31.337Z,1018.13
2024-03-17T11:48:31.649Z,1018.08
2024-03-17T11:49:31.870Z,1018.07
2024-03-17T11:50:32.084Z,1018.04
2024-03-17T11:51:32.299Z,1018.06
2024-03-17T11:52:32.505Z,1018.09
2024-03-17T11:53:32.757Z,1017.95
2024-03-17T11:54:32.955Z,1018.06
2024-03-17T11:55:33.148Z,1017.95
2024-03-17T11:56:33.479Z,1017.99
2024-03-17T11:57:33.686Z,1017.96
2024-03-17T11:58:33.936Z,1017.97
2024-03-17T11:59:34.113Z,1018.03
2024-03-17T12:00:35.285Z,1017.95
2024-03-17T12:01:34.585Z,1018.08
2024-03-17T12:02:34.788Z,1018.00
2024-03-17T12:03:35.013Z,1018.05
2024-03-17T12:04:35.222Z,1018.00
2024-03-17T12:05:35.413Z,1018.13
2024-03-17T12:06:35.626Z,1017.97
2024-03-17T12:07:35.855Z,1018.04
2024-03-17T12:08:36.077Z,1018.07
2024-03-17T12:09:36.296Z,1018.01
2024-03-17T12:10:36.514Z,1018.03